createdAt,value
2023-03-14T00:00:20.240Z,61.88
2023-03-14T00:03:17.742Z,62.16
2023-03-14T00:06:17.150Z,62.39
2023-03-14T00:09:14.899Z,62.67
2023-03-14T00:12:12.451Z,62.74
2023-03-14T00:15:10.229Z,63.19
2023-03-14T00:18:07.705Z,63.22
2023-03-14T00:21:05.366Z,63.51
2023-03-14T00:24:02.799Z,63.73
2023-03-14T00:27:00.658Z,63.96
2023-03-14T00:29:58.370Z,64.07
2023-03-14T00:32:55.882Z,64.38
2023-03-14T00:35:53.609Z,64.56
2023-03-14T00:38:51.466Z,64.62
2023-03-14T00:41:49.187Z,64.88
2023-03-14T00:44:46.666Z,65.07
2023-03-14T00:47:46.889Z,65.27
2023-03-14T00:50:44.365Z,65.49
2023-03-14T00:53:42.118Z,65.73
2023-03-14T00:56:39.979Z,65.84
2023-03-14T00:59:37.458Z,65.98
2023-03-14T01:02:35.237Z,66.15
2023-03-14T01:05:32.706Z,66.35
2023-03-14T01:08:30.356Z,66.54
2023-03-14T01:11:28.052Z,66.59
2023-03-14T01:14:25.492Z,66.76
2023-03-14T01:17:23.867Z,66.95
2023-03-14T01:20:21.313Z,67.14
2023-03-14T01:23:19.073Z,67.26
2023-03-14T01:26:16.519Z,67.55
2023-03-14T01:29:14.194Z,67.70
2023-03-14T01:32:11.823Z,67.83
2023-03-14T01:35:09.263Z,68.03
2023-03-14T01:38:06.984Z,68.20
2023-03-14T01:41:04.470Z,68.42
2023-03-14T01:44:02.089Z,68.56
2023-03-14T01:46:59.525Z,68.71
2023-03-14T01:49:57.215Z,68.78
2023-03-14T01:52:54.918Z,68.88
2023-03-14T01:55:52.378Z,68.96
2023-03-14T01:58:50.115Z,69.15
2023-03-14T02:01:47.568Z,69.32
2023-03-14T02:04:45.352Z,69.55
2023-03-14T02:07:43.011Z,69.78
2023-03-14T02:10:40.455Z,69.88
2023-03-14T02:13:38.137Z,70.01
2023-03-14T02:16:35.623Z,70.14
2023-03-14T02:19:33.351Z,70.26
2023-03-14T02:22:30.847Z,70.38
2023-03-14T02:25:28.587Z,70.58
2023-03-14T02:28:26.254Z,70.80
2023-03-14T02:31:23.775Z,70.94
2023-03-14T02:34:21.574Z,70.99
2023-03-14T02:37:19.020Z,71.06
2023-03-14T02:40:16.807Z,71.06
2023-03-14T02:43:14.444Z,71.18
2023-03-14T02:46:11.923Z,70.98
2023-03-14T02:49:09.568Z,70.79
2023-03-14T02:52:07.132Z,70.75
2023-03-14T02:55:05.347Z,70.18
2023-03-14T02:58:03.102Z,70.47
2023-03-14T03:01:00.589Z,70.43
2023-03-14T03:03:59.681Z,70.40
2023-03-14T03:06:57.141Z,70.38
2023-03-14T03:09:54.762Z,70.42
2023-03-14T03:12:52.337Z,70.36
2023-03-14T03:15:50.121Z,70.36
2023-03-14T03:18:47.586Z,70.33
2023-03-14T03:21:45.290Z,70.29
2023-03-14T03:24:43.025Z,70.28
2023-03-14T03:27:40.492Z,69.84
2023-03-14T03:30:38.279Z,69.29
2023-03-14T03:33:35.771Z,69.01
2023-03-14T03:36:33.570Z,68.53
2023-03-14T03:39:31.026Z,68.04
2023-03-14T03:42:28.784Z,67.83
2023-03-14T03:45:26.446Z,67.53
2023-03-14T03:48:23.913Z,67.40
2023-03-14T03:51:21.529Z,67.07
2023-03-14T03:54:18.977Z,66.95
2023-03-14T03:57:16.703Z,66.78
2023-03-14T04:00:14.160Z,66.74
2023-03-14T04:03:11.819Z,66.64
2023-03-14T04:06:10.437Z,66.53
2023-03-14T04:09:07.923Z,66.49
2023-03-14T04:12:05.645Z,66.39
2023-03-14T04:15:03.134Z,66.33
2023-03-14T04:18:00.818Z,66.28
2023-03-14T04:20:58.360Z,66.23
2023-03-14T04:23:56.882Z,66.15
2023-03-14T04:26:54.602Z,66.14
2023-03-14T04:29:52.108Z,66.10
2023-03-14T04:32:49.876Z,65.80
2023-03-14T04:35:47.366Z,65.65
2023-03-14T04:38:45.018Z,65.45
2023-03-14T04:41:42.482Z,65.48
2023-03-14T04:44:40.122Z,65.31
2023-03-14T04:47:37.738Z,65.18
2023-03-14T04:50:35.214Z,64.98
2023-03-14T04:53:33.293Z,64.88
2023-03-14T04:56:30.815Z,64.79
2023-03-14T04:59:28.587Z,64.75
2023-03-14T05:02:26.050Z,64.64
2023-03-14T05:05:23.819Z,64.52
2023-03-14T05:08:21.604Z,64.51
2023-03-14T05:11:19.378Z,64.46
2023-03-14T05:14:17.118Z,64.42
2023-03-14T05:17:22.067Z,64.43
2023-03-14T05:20:19.825Z,64.39
2023-03-14T05:23:17.587Z,64.35
2023-03-14T05:26:15.034Z,64.37
2023-03-14T05:29:12.697Z,64.50
2023-03-14T05:32:10.145Z,64.59
2023-03-14T05:35:07.845Z,64.80
2023-03-14T05:38:05.320Z,64.71
2023-03-14T05:41:03.083Z,64.67
2023-03-14T05:44:00.558Z,64.69
2023-03-14T05:46:58.288Z,64.82
2023-03-14T05:49:56.052Z,64.91
2023-03-14T05:52:53.503Z,65.09
2023-03-14T05:55:51.286Z,65.15
2023-03-14T05:58:48.740Z,65.46
2023-03-14T06:01:46.802Z,65.53
2023-03-14T06:04:44.589Z,65.55
2023-03-14T06:07:42.037Z,65.53
2023-03-14T06:10:39.816Z,65.62
2023-03-14T06:13:37.294Z,65.68
2023-03-14T06:16:35.056Z,65.55
2023-03-14T06:19:32.530Z,65.44
2023-03-14T06:22:30.164Z,65.21
2023-03-14T06:25:27.604Z,65.08
2023-03-14T06:28:26.191Z,65.06
2023-03-14T06:31:23.781Z,65.25
2023-03-14T06:34:21.754Z,65.30
2023-03-14T06:37:21.037Z,65.47
2023-03-14T06:40:19.477Z,65.51
2023-03-14T06:43:17.666Z,65.25
2023-03-14T06:46:16.617Z,65.39
2023-03-14T06:49:14.346Z,64.65
2023-03-14T06:52:11.846Z,64.25
2023-03-14T06:55:09.613Z,63.30
2023-03-14T06:58:09.345Z,62.41
2023-03-14T07:01:06.976Z,62.06
2023-03-14T07:04:04.760Z,61.78
2023-03-14T07:07:02.275Z,61.42
2023-03-14T07:09:59.969Z,61.14
2023-03-14T07:12:57.429Z,60.80
2023-03-14T07:15:55.078Z,60.66
2023-03-14T07:18:53.593Z,61.83
2023-03-14T07:21:51.446Z,63.93
2023-03-14T07:24:49.230Z,64.47
2023-03-14T07:27:46.694Z,65.04
2023-03-14T07:30:44.390Z,64.76
2023-03-14T07:33:42.192Z,64.67
2023-03-14T07:36:39.651Z,63.93
2023-03-14T07:39:37.294Z,63.63
2023-03-14T07:42:34.743Z,63.39
2023-03-14T07:45:32.671Z,62.97
2023-03-14T07:48:30.170Z,62.19
2023-03-14T07:51:27.887Z,62.25
2023-03-14T07:54:25.905Z,62.05
2023-03-14T07:57:23.646Z,61.83
2023-03-14T08:00:21.540Z,61.66
2023-03-14T08:03:18.990Z,61.58
2023-03-14T08:06:16.743Z,61.55
2023-03-14T08:09:14.204Z,61.50
2023-03-14T08:12:12.033Z,61.44
2023-03-14T08:15:09.480Z,61.22
2023-03-14T08:18:07.178Z,60.97
2023-03-14T08:21:04.660Z,60.77
2023-03-14T08:24:03.055Z,60.72
2023-03-14T08:27:00.506Z,60.75
2023-03-14T08:29:58.249Z,60.76
2023-03-14T08:32:56.066Z,60.58
2023-03-14T08:35:53.649Z,60.42
2023-03-14T08:38:52.025Z,60.29
2023-03-14T08:41:49.546Z,60.21
2023-03-14T08:44:47.834Z,60.08
2023-03-14T08:47:45.291Z,60.05
2023-03-14T08:50:42.949Z,59.92
2023-03-14T08:53:40.499Z,59.66
2023-03-14T08:56:39.328Z,59.63
2023-03-14T08:59:36.948Z,59.22
2023-03-14T09:02:34.411Z,58.94
2023-03-14T09:05:32.685Z,58.76
2023-03-14T09:08:30.177Z,58.86
2023-03-14T09:11:28.055Z,58.79
2023-03-14T09:14:26.023Z,58.66
2023-03-14T09:17:24.339Z,58.85
2023-03-14T09:20:22.969Z,58.90
2023-03-14T09:23:20.433Z,58.76
2023-03-14T09:26:18.072Z,59.04
2023-03-14T09:29:15.505Z,59.03
2023-03-14T09:32:13.173Z,58.91
2023-03-14T09:35:10.982Z,58.90
2023-03-14T09:38:08.756Z,58.99
2023-03-14T09:41:06.188Z,59.18
2023-03-14T09:44:03.783Z,59.23
2023-03-14T09:47:01.429Z,59.19
2023-03-14T09:49:58.886Z,59.15
2023-03-14T09:52:56.489Z,59.26
2023-03-14T09:55:54.724Z,59.67
2023-03-14T09:58:52.595Z,59.86
2023-03-14T10:01:50.132Z,59.89
2023-03-14T10:04:47.862Z,60.23
2023-03-14T10:07:45.695Z,60.02
2023-03-14T10:10:43.164Z,60.13
2023-03-14T10:13:40.816Z,60.02
2023-03-14T10:16:38.410Z,59.97
2023-03-14T10:19:37.066Z,59.74
2023-03-14T10:22:34.507Z,59.24
2023-03-14T10:25:32.215Z,58.70
2023-03-14T10:28:29.966Z,58.49
2023-03-14T10:31:27.439Z,58.27
2023-03-14T10:34:25.192Z,58.06
2023-03-14T10:37:22.705Z,57.96
2023-03-14T10:40:21.049Z,57.84
2023-03-14T10:43:18.503Z,58.09
2023-03-14T10:46:16.882Z,58.28
2023-03-14T10:49:15.147Z,58.62
2023-03-14T10:52:12.593Z,58.82
2023-03-14T10:55:10.288Z,58.86
2023-03-14T10:58:07.803Z,58.75
2023-03-14T11:01:05.688Z,58.58
2023-03-14T11:04:03.397Z,58.51
2023-03-14T11:07:00.896Z,58.26
2023-03-14T11:09:59.014Z,57.87
2023-03-14T11:12:56.530Z,57.64
2023-03-14T11:15:54.352Z,57.23
2023-03-14T11:18:51.968Z,57.01
2023-03-14T11:21:49.608Z,56.80
2023-03-14T11:24:47.046Z,56.66
2023-03-14T11:27:45.007Z,56.69
2023-03-14T11:30:42.775Z,56.65
2023-03-14T11:33:40.218Z,56.36
2023-03-14T11:36:38.228Z,56.21
2023-03-14T11:39:35.714Z,56.02
2023-03-14T11:42:35.881Z,55.92
2023-03-14T11:45:33.353Z,55.86
2023-03-14T11:48:31.005Z,55.76
2023-03-14T11:51:29.831Z,55.63
2023-03-14T11:54:27.293Z,55.46
2023-03-14T11:57:25.072Z,55.56
2023-03-14T12:00:22.927Z,55.61
2023-03-14T12:03:20.880Z,55.63
2023-03-14T12:06:18.335Z,55.69
2023-03-14T12:09:15.949Z,55.83
2023-03-14T12:12:13.766Z,55.91
2023-03-14T12:15:11.249Z,55.83
2023-03-14T12:18:08.933Z,55.82
2023-03-14T12:21:06.823Z,55.95
2023-03-14T12:24:04.543Z,56.06
2023-03-14T12:27:02.021Z,56.35
2023-03-14T12:30:01.631Z,56.47
2023-03-14T12:33:00.333Z,56.66
2023-03-14T12:35:57.907Z,56.57
2023-03-14T12:38:55.543Z,56.59
2023-03-14T12:41:53.008Z,56.60
2023-03-14T12:44:50.783Z,56.71
2023-03-14T12:47:50.239Z,56.74
2023-03-14T12:50:48.375Z,56.77
2023-03-14T12:53:45.839Z,56.59
2023-03-14T12:56:43.744Z,56.48
2023-03-14T12:59:42.134Z,56.48
2023-03-14T13:02:41.056Z,56.40
2023-03-14T13:05:38.805Z,56.36
2023-03-14T13:08:36.243Z,56.35
2023-03-14T13:11:34.059Z,56.36
2023-03-14T13:14:31.685Z,56.25
2023-03-14T13:17:35.540Z,56.32
2023-03-14T13:20:34.731Z,56.38
2023-03-14T13:23:32.211Z,56.47
2023-03-14T13:26:29.909Z,56.55
2023-03-14T13:29:27.365Z,56.64
2023-03-14T13:32:25.203Z,56.84
2023-03-14T13:35:22.687Z,56.90
2023-03-14T13:38:20.900Z,56.98
2023-03-14T13:41:19.286Z,57.03
2023-03-14T13:44:16.927Z,56.96
2023-03-14T13:47:14.562Z,57.11
2023-03-14T13:50:12.039Z,57.07
2023-03-14T13:53:09.828Z,57.12
2023-03-14T13:56:07.314Z,57.15
2023-03-14T13:59:05.072Z,57.10
2023-03-14T14:02:03.358Z,57.17
2023-03-14T14:05:00.904Z,57.24
2023-03-14T14:07:58.761Z,57.71
2023-03-14T14:10:56.230Z,58.00
2023-03-14T14:13:53.864Z,57.78
2023-03-14T14:16:53.520Z,57.91
2023-03-14T14:19:51.248Z,57.52
2023-03-14T14:22:49.692Z,57.59
2023-03-14T14:25:47.395Z,57.73
2023-03-14T14:28:45.288Z,57.61
2023-03-14T14:31:43.016Z,57.49
2023-03-14T14:34:41.350Z,57.27
2023-03-14T14:37:39.217Z,56.99
2023-03-14T14:40:36.692Z,56.83
2023-03-14T14:43:34.335Z,56.58
2023-03-14T14:46:31.870Z,56.44
2023-03-14T14:49:29.504Z,56.37
2023-03-14T14:52:28.926Z,56.34
2023-03-14T14:55:27.427Z,56.33
2023-03-14T14:58:25.501Z,56.22
2023-03-14T15:01:23.373Z,56.12
2023-03-14T15:04:21.256Z,56.23
2023-03-14T15:07:18.766Z,56.34
2023-03-14T15:10:16.482Z,56.57
2023-03-14T15:13:14.517Z,56.72
2023-03-14T15:16:12.569Z,56.83
2023-03-14T15:19:23.453Z,57.15
2023-03-14T15:22:22.501Z,57.60
2023-03-14T15:25:43.569Z,57.99
2023-03-14T15:28:37.567Z,58.40
2023-03-14T15:31:35.412Z,58.71
2023-03-14T15:34:33.234Z,58.97
2023-03-14T15:37:31.957Z,59.24
2023-03-14T15:40:30.859Z,59.38
2023-03-14T15:43:28.413Z,59.67
2023-03-14T15:46:26.261Z,60.07
2023-03-14T15:49:23.751Z,60.61
2023-03-14T15:52:21.580Z,60.56
2023-03-14T15:55:19.084Z,61.09
2023-03-14T15:58:18.284Z,61.36
2023-03-14T16:01:18.116Z,61.76
2023-03-14T16:04:15.666Z,61.57
2023-03-14T16:07:13.498Z,61.80
2023-03-14T16:10:11.318Z,61.99
2023-03-14T16:13:09.065Z,61.84
2023-03-14T16:16:06.602Z,62.27
2023-03-14T16:19:06.557Z,62.70
2023-03-14T16:22:04.775Z,62.99
2023-03-14T16:25:02.594Z,63.22
2023-03-14T16:28:10.624Z,63.50
2023-03-14T16:31:09.410Z,63.79
2023-03-14T16:34:07.617Z,64.08
2023-03-14T16:37:05.452Z,64.29
2023-03-14T16:40:12.447Z,64.58
2023-03-14T16:46:29.284Z,64.63
2023-03-14T16:49:27.112Z,64.90
2023-03-14T16:52:24.924Z,64.87
2023-03-14T16:55:22.710Z,65.06
2023-03-14T16:58:22.152Z,65.35
2023-03-14T17:01:19.996Z,65.20
2023-03-14T17:04:18.118Z,65.25
2023-03-14T17:07:16.087Z,65.50
2023-03-14T17:10:13.551Z,65.46
2023-03-14T17:13:12.078Z,65.49
2023-03-14T17:16:10.215Z,65.79
2023-03-14T17:19:08.938Z,65.90
2023-03-14T17:22:21.818Z,66.30
2023-03-14T17:25:23.304Z,66.66
2023-03-14T17:28:22.342Z,66.63
2023-03-14T17:31:21.046Z,66.66
2023-03-14T17:34:19.154Z,66.63
2023-03-14T17:37:17.710Z,66.62
2023-03-14T17:40:16.152Z,66.71
2023-03-14T17:43:14.889Z,67.00
2023-03-14T17:46:15.290Z,67.12
2023-03-14T17:49:13.343Z,66.99
2023-03-14T17:52:13.450Z,67.06
2023-03-14T17:55:13.417Z,67.00
2023-03-14T17:58:14.566Z,66.89
2023-03-14T18:01:13.521Z,66.62
2023-03-14T18:04:14.394Z,66.51
2023-03-14T18:07:15.860Z,66.66
2023-03-14T18:10:15.126Z,66.55
2023-03-14T18:13:16.226Z,66.67
2023-03-14T18:16:16.731Z,66.71
2023-03-14T18:19:16.005Z,66.12
2023-03-14T18:22:15.305Z,66.22
2023-03-14T18:25:18.295Z,66.19
2023-03-14T18:28:17.930Z,65.52
2023-03-14T18:31:20.090Z,65.46
2023-03-14T18:34:19.071Z,65.20
2023-03-14T18:37:18.485Z,64.70
2023-03-14T18:40:17.700Z,64.42
2023-03-14T18:43:19.197Z,64.16
2023-03-14T18:46:18.686Z,63.71
2023-03-14T18:49:18.550Z,63.97
2023-03-14T18:52:18.613Z,63.96
2023-03-14T18:55:17.580Z,64.01
2023-03-14T18:58:16.141Z,64.25
2023-03-14T19:01:19.194Z,63.91
2023-03-14T19:04:19.242Z,63.89
2023-03-14T19:07:18.269Z,63.35
2023-03-14T19:10:21.257Z,63.11
2023-03-14T19:13:20.557Z,62.73
2023-03-14T19:16:19.884Z,62.68
2023-03-14T19:19:19.148Z,62.61
2023-03-14T19:22:17.517Z,62.69
2023-03-14T19:25:16.802Z,62.51
2023-03-14T19:28:17.457Z,62.69
2023-03-14T19:31:17.203Z,62.51
2023-03-14T19:34:18.506Z,62.41
2023-03-14T19:37:19.619Z,62.42
2023-03-14T19:40:21.558Z,62.27
2023-03-14T19:43:21.526Z,62.25
2023-03-14T19:46:21.013Z,61.96
2023-03-14T19:49:21.034Z,61.66
2023-03-14T19:52:21.490Z,61.59
2023-03-14T19:55:19.986Z,61.46
2023-03-14T19:58:21.015Z,61.09
2023-03-14T20:01:23.696Z,60.90
2023-03-14T20:04:27.396Z,60.87
2023-03-14T20:07:28.891Z,60.73
2023-03-14T20:10:28.632Z,60.56
2023-03-14T20:13:32.720Z,60.32
2023-03-14T20:16:35.695Z,59.89
2023-03-14T20:19:34.006Z,59.81
2023-03-14T20:22:37.500Z,59.63
2023-03-14T20:25:36.299Z,59.43
2023-03-14T20:28:37.564Z,59.29
2023-03-14T20:31:39.515Z,59.29
2023-03-14T20:34:39.443Z,59.28
2023-03-14T20:37:38.787Z,59.42
2023-03-14T20:40:40.149Z,59.47
2023-03-14T20:43:38.838Z,59.46
2023-03-14T20:46:37.658Z,59.52
2023-03-14T20:49:36.160Z,59.41
2023-03-14T20:52:35.657Z,59.34
2023-03-14T20:55:35.800Z,59.16
2023-03-14T20:58:36.032Z,58.90
2023-03-14T21:04:51.318Z,58.41
2023-03-14T21:07:53.379Z,57.86
2023-03-14T21:10:52.548Z,57.52
2023-03-14T21:13:50.702Z,57.39
2023-03-14T21:16:49.552Z,56.27
2023-03-14T21:19:47.991Z,56.17
2023-03-14T21:22:46.378Z,55.57
2023-03-14T21:25:44.788Z,55.45
2023-03-14T21:28:43.917Z,55.27
2023-03-14T21:31:41.665Z,54.92
2023-03-14T21:34:39.496Z,54.56
2023-03-14T21:37:37.687Z,54.84
2023-03-14T21:40:35.646Z,54.48
2023-03-14T21:43:33.789Z,53.94
2023-03-14T21:46:31.732Z,53.95
2023-03-14T21:49:29.610Z,53.41
2023-03-14T21:52:27.403Z,53.09
2023-03-14T21:55:25.382Z,53.26
2023-03-14T21:58:24.692Z,52.88
2023-03-14T22:01:22.678Z,52.59
2023-03-14T22:04:26.162Z,52.29
2023-03-14T22:07:23.559Z,52.66
2023-03-14T22:10:21.514Z,52.29
2023-03-14T22:13:18.913Z,52.41
2023-03-14T22:16:16.925Z,51.71
2023-03-14T22:19:14.328Z,51.81
2023-03-14T22:22:12.247Z,51.89
2023-03-14T22:25:09.669Z,52.00
2023-03-14T22:28:07.965Z,52.03
2023-03-14T22:31:05.337Z,52.17
2023-03-14T22:34:03.226Z,52.34
2023-03-14T22:37:00.628Z,52.48
2023-03-14T22:39:58.443Z,52.97
2023-03-14T22:42:55.867Z,53.33
2023-03-14T22:45:53.848Z,53.71
2023-03-14T22:48:51.340Z,54.07
2023-03-14T22:51:49.306Z,54.38
2023-03-14T22:54:46.689Z,54.85
2023-03-14T22:57:44.554Z,55.12
2023-03-14T23:00:42.078Z,55.32
2023-03-14T23:03:40.014Z,55.53
2023-03-14T23:06:37.835Z,55.64
2023-03-14T23:09:35.233Z,55.74
2023-03-14T23:12:34.391Z,55.82
2023-03-14T23:15:31.773Z,55.80
2023-03-14T23:18:29.930Z,55.88
2023-03-14T23:21:27.327Z,55.77
2023-03-14T23:24:25.269Z,55.84
2023-03-14T23:27:22.692Z,55.81
2023-03-14T23:30:20.496Z,55.73
2023-03-14T23:33:17.875Z,55.71
2023-03-14T23:36:15.921Z,55.53
2023-03-14T23:39:13.322Z,55.44
2023-03-14T23:42:11.083Z,55.35
2023-03-14T23:45:08.503Z,55.27
2023-03-14T23:48:06.381Z,55.26
2023-03-14T23:51:03.784Z,55.16
2023-03-14T23:54:01.602Z,55.01
2023-03-14T23:56:59.006Z,54.97
2023-03-14T23:59:56.843Z,54.77
